Aeroporto :
LOGIN :

Iscrizione | Disclaimer

   EN    FR    IT 

 










Sommario :    VFR   VFR Marginale   IFR   IFR Intensivo   IFR Molto Intensivo
Visibilità : 
Base nubi : 
>= 8 km
>= 3000ft
5 / 8 km
1000 / 3000 ft
1500m / 5 km
500 / 1000 ft
800 / 1500m
200 / 500 ft
< 800m
< 200 ft
Simboli :   Temporali  Nebbia  Neve Forte  Precipitazioni Forti  Vento > 20 kt
SIGMETs :   Varie  Temporali  Ghiacco  Turbolenza  Onda orograficha  Ceneri Vulcaniche






- Altitudine del aeroporto : 72 ft
- Codice IATA : UDE


EHVK - Volkel Airbase

ULTIMO METAR :
  • 221325Z AUTO 25014KT 9999 OVC078 11/08 Q1016 BLU TEMPO 26015G25KT SCT016 SCT020CB BKN030

METARs OBSOLETI :
  • 221314Z AUTO 25013KT 220V290 9999 FEW022 SCT025 OVC079 12/09 Q1016 BLU TEMPO 26015G25KT SCT016 SCT020CB BKN030
  • 221255Z AUTO 25013KT 9999 -RADZ FEW016 BKN020 BKN029 11/08 Q1015 WHT TEMPO 26015G25KT SCT016 SCT020CB BKN030
  • 221243Z AUTO 25014G24KT 220V280 9999 DZ FEW017 BKN020 BKN027 11/08 Q1015 WHT TEMPO 26015G25KT SCT017 SCT020CB BKN030
  • 221232Z AUTO 24015G25KT 9999 -RA FEW019 SCT024 BKN027 11/08 Q1015 WHT TEMPO 26015G25KT SCT017 SCT020CB BKN030
  • 221225Z AUTO 24017KT 210V270 9999 SCT025 BKN029 BKN036 11/08 Q1015 BLU TEMPO 26015G25KT FEW020CB BKN030
  • 221155Z AUTO 24016KT 9999 FEW016 SCT034 BKN039 11/08 Q1015 BLU TEMPO 26015G25KT FEW020CB BKN030
  • 221134Z AUTO 24016KT 220V280 9999 FEW023 SCT026 BKN061 11/08 Q1015 BLU TEMPO 26015G25KT FEW020CB BKN030
  • 221125Z AUTO 25016KT 220V280 9999 FEW019 BKN022 BKN026 11/08 Q1015 REDZ WHT TEMPO 26015G25KT FEW020CB BKN030
  • 221056Z AUTO 25014KT 220V280 8000 +DZRA FEW019 BKN023 BKN028 10/07 Q1015 WHT TEMPO 26015G25KT FEW020CB BKN030
  • 221055Z AUTO 25014KT 220V280 6000 +DZRA FEW021 SCT025 BKN030 10/07 Q1015 WHT TEMPO 26015G25KT FEW020CB BKN030
  • 221025Z AUTO 24017KT 9999 SCT032 OVC038 11/07 Q1014 BLU TEMPO 26015G25KT FEW020CB BKN030

TAF TAF EHVK
Valido dal 22 a 13 ore il 23 a 01 ore UTC


221238Z 2213/2301 24015G25KT 9999 BKN030
TEMPO 2213/2217 4000 SHRA RA SCT015 SCT020CB BKN025
BECMG 2214/2217 29007KT
BECMG 2218/2221 23004KT



MetMap, La meteo Aeronautica in un colpo d'occhio ! - Copyright ORBIFLY Dicembre 2007 - Disclaimer

ORBIFLY MET'MAP TEAM :

Programmazione e sviluppo : Alexandra Zaïnal
Concezione : Baudouin d'Aumeries
Aiuto per la programmazione : Marc-Olivier Méhu
Supporto tecnico e logistico : Manuel Goepfert
Aiuto per la traduzione : Arnaldo La Scala

Contatto : metmap@orbifly.com




FONTI E CREDITI :

   NOAA